Far Rockaway, NY

7:59 AM EST on February 01, 2015 (GMT -0500)
Breezy Point, NY (BALLFIELD) | Change Station
CLOSE
Current Station
Personal Weather Station
Location: New York, NY
Elevation: 7 ft
Nearby Weather Stations
Active Advisory: Winter Storm Warning

Elev 7 ft 40.56 °N, 73.92 °W | Updated 1 second ago

Overcast
Overcast
27.0 °F
Feels Like 27 °F
N
0.9
Wind Variable Wind from WSW
Gusts 2.5 mph

Today
High -- | Low -- °F
--% Chance of Precip.
Yesterday
High -- | Low -- °F
Precip. -- in
7:05 AM 5:13 PM
Waxing Gibbous, 95% visible
Pressure 30.25 in
Visibility 10.0 miles
Clouds Mostly Cloudy 5000 ft
Mostly Cloudy 25000 ft
Windchill 27 °F
Dew Point 11 °F
Humidity 51%
Rainfall 0.00 in
Snow Depth Not available.
UV 0.0 out of 12
Pollen .10 out of 12
Air Quality Not available.
Flu Activity Not available.
METAR KJFK 011251Z 26010KT 10SM BKN050 BKN250 M03/M11 A3024 RMK AO2 SLP241 T10331106

More Conditions Fewer Conditions

Pressure 30.25 in
Visibility 10.0 miles
Clouds Mostly Cloudy 5000 ft
Mostly Cloudy 25000 ft
Windchill 27 °F
Dew Point 11 °F
Humidity 51%
Rainfall 0.00 in
Snow Depth Not available.
UV 0.0 out of 12
Pollen .10 out of 12
Air Quality Not available.
Flu Activity Not available.
METAR KJFK 011251Z 26010KT 10SM BKN050 BKN250 M03/M11 A3024 RMK AO2 SLP241 T10331106

More Conditions Fewer Conditions

10-Day Weather Forecast

Almanac

Astronomy

Feb. 01, 2015 Rise Set
Actual Time
Civil Twilight
Nautical Twilight
Astronomical Twilight
Moon
Length of Visible Light
Length of Day
Tomorrow will be .
, % of the Moon is Illuminated

Today's Extremes

State Highs State Lows

Community

WunderPhotos

Upload Photos

1,792,353 photos uploaded!

WunderBlogs® & News

Nearby

Air Quality

  Air Quality AQ Index Pollutant
Not available.

Snow Depth

Station Depth Elevation

Earthquake Activity

City Distance Mag. Time & Date
Minimum magnitude displayed is 2.5.

Coastal Water Temperatures

Place Temperature

Nearby Weather Stations